sensor_id;sensor_type;location;lat;lon;timestamp;P1;durP1;ratioP1;P2;durP2;ratioP2
74679;SDS011;63211;48.548;2.704;2024-03-02T00:00:06;1.73;;;0.10;;
74679;SDS011;63211;48.548;2.704;2024-03-02T00:02:39;0.10;;;0.00;;
74679;SDS011;63211;48.548;2.704;2024-03-02T00:05:08;0.10;;;0.00;;
74679;SDS011;63211;48.548;2.704;2024-03-02T00:07:38;0.65;;;0.10;;
74679;SDS011;63211;48.548;2.704;2024-03-02T00:10:07;0.20;;;0.00;;
74679;SDS011;63211;48.548;2.704;2024-03-02T00:12:35;1.75;;;0.17;;
74679;SDS011;63211;48.548;2.704;2024-03-02T00:15:03;1.80;;;0.10;;
74679;SDS011;63211;48.548;2.704;2024-03-02T00:17:33;0.88;;;0.10;;
74679;SDS011;63211;48.548;2.704;2024-03-02T00:19:59;0.50;;;0.10;;
74679;SDS011;63211;48.548;2.704;2024-03-02T00:22:30;0.20;;;0.00;;
74679;SDS011;63211;48.548;2.704;2024-03-02T00:24:56;0.30;;;0.10;;
74679;SDS011;63211;48.548;2.704;2024-03-02T00:27:24;1.02;;;0.10;;
74679;SDS011;63211;48.548;2.704;2024-03-02T00:29:51;0.43;;;0.10;;
74679;SDS011;63211;48.548;2.704;2024-03-02T00:32:17;0.20;;;0.10;;
74679;SDS011;63211;48.548;2.704;2024-03-02T00:34:44;0.40;;;0.10;;
74679;SDS011;63211;48.548;2.704;2024-03-02T00:37:10;2.13;;;0.20;;
74679;SDS011;63211;48.548;2.704;2024-03-02T00:39:39;0.15;;;0.10;;
74679;SDS011;63211;48.548;2.704;2024-03-02T00:42:06;0.28;;;0.00;;
74679;SDS011;63211;48.548;2.704;2024-03-02T00:44:33;0.30;;;0.10;;
74679;SDS011;63211;48.548;2.704;2024-03-02T00:47:00;1.10;;;0.00;;
74679;SDS011;63211;48.548;2.704;2024-03-02T00:49:28;0.65;;;0.08;;
74679;SDS011;63211;48.548;2.704;2024-03-02T00:51:55;1.38;;;0.20;;
74679;SDS011;63211;48.548;2.704;2024-03-02T00:54:22;0.75;;;0.22;;
74679;SDS011;63211;48.548;2.704;2024-03-02T00:56:52;0.20;;;0.10;;
74679;SDS011;63211;48.548;2.704;2024-03-02T00:59:20;1.08;;;0.10;;
74679;SDS011;63211;48.548;2.704;2024-03-02T01:01:47;0.35;;;0.10;;
74679;SDS011;63211;48.548;2.704;2024-03-02T01:04:14;0.55;;;0.00;;
74679;SDS011;63211;48.548;2.704;2024-03-02T01:06:41;0.10;;;0.00;;
74679;SDS011;63211;48.548;2.704;2024-03-02T01:09:08;0.88;;;0.10;;
74679;SDS011;63211;48.548;2.704;2024-03-02T01:11:35;0.38;;;0.10;;
74679;SDS011;63211;48.548;2.704;2024-03-02T01:14:03;0.57;;;0.08;;
74679;SDS011;63211;48.548;2.704;2024-03-02T01:16:29;0.45;;;0.05;;
74679;SDS011;63211;48.548;2.704;2024-03-02T01:18:56;1.08;;;0.10;;
74679;SDS011;63211;48.548;2.704;2024-03-02T01:21:23;0.00;;;0.00;;
74679;SDS011;63211;48.548;2.704;2024-03-02T01:23:49;0.60;;;0.13;;
74679;SDS011;63211;48.548;2.704;2024-03-02T01:26:16;0.60;;;0.08;;
74679;SDS011;63211;48.548;2.704;2024-03-02T01:28:42;1.05;;;0.00;;
74679;SDS011;63211;48.548;2.704;2024-03-02T01:31:10;1.75;;;0.00;;
74679;SDS011;63211;48.548;2.704;2024-03-02T01:33:38;0.00;;;0.00;;
74679;SDS011;63211;48.548;2.704;2024-03-02T01:36:04;0.20;;;0.00;;
74679;SDS011;63211;48.548;2.704;2024-03-02T01:38:33;0.10;;;0.00;;
74679;SDS011;63211;48.548;2.704;2024-03-02T01:41:00;0.20;;;0.05;;
74679;SDS011;63211;48.548;2.704;2024-03-02T01:43:27;0.35;;;0.10;;
74679;SDS011;63211;48.548;2.704;2024-03-02T01:45:54;0.13;;;0.00;;
74679;SDS011;63211;48.548;2.704;2024-03-02T01:48:23;0.47;;;0.08;;
74679;SDS011;63211;48.548;2.704;2024-03-02T01:50:49;0.10;;;0.03;;
74679;SDS011;63211;48.548;2.704;2024-03-02T01:53:16;0.90;;;0.10;;
74679;SDS011;63211;48.548;2.704;2024-03-02T01:55:44;0.65;;;0.10;;
74679;SDS011;63211;48.548;2.704;2024-03-02T01:58:10;0.45;;;0.00;;
74679;SDS011;63211;48.548;2.704;2024-03-02T02:00:37;1.77;;;0.05;;
74679;SDS011;63211;48.548;2.704;2024-03-02T02:03:03;0.10;;;0.03;;
74679;SDS011;63211;48.548;2.704;2024-03-02T02:05:31;0.13;;;0.00;;
74679;SDS011;63211;48.548;2.704;2024-03-02T02:07:58;0.35;;;0.00;;
74679;SDS011;63211;48.548;2.704;2024-03-02T02:10:25;0.10;;;0.00;;
74679;SDS011;63211;48.548;2.704;2024-03-02T02:12:51;0.17;;;0.05;;
74679;SDS011;63211;48.548;2.704;2024-03-02T02:15:21;1.00;;;0.10;;
74679;SDS011;63211;48.548;2.704;2024-03-02T02:17:49;0.13;;;0.05;;
74679;SDS011;63211;48.548;2.704;2024-03-02T02:20:15;0.20;;;0.00;;
74679;SDS011;63211;48.548;2.704;2024-03-02T02:22:53;0.30;;;0.00;;
74679;SDS011;63211;48.548;2.704;2024-03-02T02:25:20;0.10;;;0.00;;
74679;SDS011;63211;48.548;2.704;2024-03-02T02:27:47;0.13;;;0.00;;
74679;SDS011;63211;48.548;2.704;2024-03-02T02:30:14;0.00;;;0.00;;
74679;SDS011;63211;48.548;2.704;2024-03-02T02:32:45;0.10;;;0.00;;
74679;SDS011;63211;48.548;2.704;2024-03-02T02:35:11;0.40;;;0.10;;
74679;SDS011;63211;48.548;2.704;2024-03-02T02:37:38;0.20;;;0.00;;
74679;SDS011;63211;48.548;2.704;2024-03-02T02:40:07;0.43;;;0.00;;
74679;SDS011;63211;48.548;2.704;2024-03-02T02:42:34;0.17;;;0.00;;
74679;SDS011;63211;48.548;2.704;2024-03-02T02:45:01;0.00;;;0.00;;
74679;SDS011;63211;48.548;2.704;2024-03-02T02:47:27;0.20;;;0.00;;
74679;SDS011;63211;48.548;2.704;2024-03-02T02:49:55;0.08;;;0.00;;
74679;SDS011;63211;48.548;2.704;2024-03-02T02:52:22;0.47;;;0.10;;
74679;SDS011;63211;48.548;2.704;2024-03-02T02:54:48;0.90;;;0.00;;
74679;SDS011;63211;48.548;2.704;2024-03-02T02:57:16;0.47;;;0.10;;
74679;SDS011;63211;48.548;2.704;2024-03-02T02:59:43;0.95;;;0.00;;
74679;SDS011;63211;48.548;2.704;2024-03-02T03:02:09;0.88;;;0.10;;
74679;SDS011;63211;48.548;2.704;2024-03-02T03:04:36;0.20;;;0.03;;
74679;SDS011;63211;48.548;2.704;2024-03-02T03:07:02;0.00;;;0.00;;
74679;SDS011;63211;48.548;2.704;2024-03-02T03:09:29;0.00;;;0.00;;
74679;SDS011;63211;48.548;2.704;2024-03-02T03:11:55;0.70;;;0.13;;
74679;SDS011;63211;48.548;2.704;2024-03-02T03:14:23;0.98;;;0.00;;
74679;SDS011;63211;48.548;2.704;2024-03-02T03:16:50;0.10;;;0.00;;
74679;SDS011;63211;48.548;2.704;2024-03-02T03:19:17;0.13;;;0.00;;
74679;SDS011;63211;48.548;2.704;2024-03-02T03:21:43;0.00;;;0.00;;
74679;SDS011;63211;48.548;2.704;2024-03-02T03:24:10;0.20;;;0.00;;
74679;SDS011;63211;48.548;2.704;2024-03-02T03:26:36;0.10;;;0.00;;
74679;SDS011;63211;48.548;2.704;2024-03-02T03:29:03;0.10;;;0.00;;
74679;SDS011;63211;48.548;2.704;2024-03-02T03:31:31;0.47;;;0.00;;
74679;SDS011;63211;48.548;2.704;2024-03-02T03:33:57;0.70;;;0.00;;
74679;SDS011;63211;48.548;2.704;2024-03-02T03:36:24;0.98;;;0.00;;
74679;SDS011;63211;48.548;2.704;2024-03-02T03:38:50;0.08;;;0.08;;
74679;SDS011;63211;48.548;2.704;2024-03-02T03:41:17;0.10;;;0.00;;
74679;SDS011;63211;48.548;2.704;2024-03-02T03:43:43;0.35;;;0.03;;
74679;SDS011;63211;48.548;2.704;2024-03-02T03:46:10;0.80;;;0.05;;
74679;SDS011;63211;48.548;2.704;2024-03-02T03:48:38;0.32;;;0.10;;
74679;SDS011;63211;48.548;2.704;2024-03-02T03:51:05;0.05;;;0.00;;
74679;SDS011;63211;48.548;2.704;2024-03-02T03:53:31;0.30;;;0.00;;
74679;SDS011;63211;48.548;2.704;2024-03-02T03:55:58;0.35;;;0.00;;
74679;SDS011;63211;48.548;2.704;2024-03-02T03:58:24;3.30;;;0.20;;
74679;SDS011;63211;48.548;2.704;2024-03-02T04:00:51;0.45;;;0.10;;
74679;SDS011;63211;48.548;2.704;2024-03-02T04:03:17;0.25;;;0.05;;
74679;SDS011;63211;48.548;2.704;2024-03-02T04:05:45;0.17;;;0.00;;
74679;SDS011;63211;48.548;2.704;2024-03-02T04:08:12;0.15;;;0.00;;
74679;SDS011;63211;48.548;2.704;2024-03-02T04:10:38;0.00;;;0.00;;
74679;SDS011;63211;48.548;2.704;2024-03-02T04:13:07;0.28;;;0.00;;
74679;SDS011;63211;48.548;2.704;2024-03-02T04:15:33;0.08;;;0.00;;
74679;SDS011;63211;48.548;2.704;2024-03-02T04:18:00;1.50;;;0.05;;
74679;SDS011;63211;48.548;2.704;2024-03-02T04:20:26;0.20;;;0.03;;
74679;SDS011;63211;48.548;2.704;2024-03-02T04:22:54;0.40;;;0.05;;
74679;SDS011;63211;48.548;2.704;2024-03-02T04:25:21;0.25;;;0.10;;
74679;SDS011;63211;48.548;2.704;2024-03-02T04:27:47;0.20;;;0.10;;
74679;SDS011;63211;48.548;2.704;2024-03-02T04:30:14;0.38;;;0.38;;
74679;SDS011;63211;48.548;2.704;2024-03-02T04:32:41;0.13;;;0.00;;
74679;SDS011;63211;48.548;2.704;2024-03-02T04:35:11;0.90;;;0.20;;
74679;SDS011;63211;48.548;2.704;2024-03-02T04:37:38;0.52;;;0.10;;
74679;SDS011;63211;48.548;2.704;2024-03-02T04:40:07;0.52;;;0.10;;
74679;SDS011;63211;48.548;2.704;2024-03-02T04:42:34;0.20;;;0.15;;
74679;SDS011;63211;48.548;2.704;2024-03-02T04:45:01;0.38;;;0.00;;
74679;SDS011;63211;48.548;2.704;2024-03-02T04:47:28;0.65;;;0.03;;
74679;SDS011;63211;48.548;2.704;2024-03-02T04:49:54;0.57;;;0.00;;
74679;SDS011;63211;48.548;2.704;2024-03-02T04:52:21;0.60;;;0.00;;
74679;SDS011;63211;48.548;2.704;2024-03-02T04:54:47;0.10;;;0.00;;
74679;SDS011;63211;48.548;2.704;2024-03-02T04:57:33;0.28;;;0.00;;
74679;SDS011;63211;48.548;2.704;2024-03-02T04:59:59;0.60;;;0.30;;
74679;SDS011;63211;48.548;2.704;2024-03-02T05:02:26;0.32;;;0.00;;
74679;SDS011;63211;48.548;2.704;2024-03-02T05:04:52;0.20;;;0.00;;
74679;SDS011;63211;48.548;2.704;2024-03-02T05:07:18;0.00;;;0.00;;
74679;SDS011;63211;48.548;2.704;2024-03-02T05:09:45;0.60;;;0.15;;
74679;SDS011;63211;48.548;2.704;2024-03-02T05:12:13;0.30;;;0.10;;
74679;SDS011;63211;48.548;2.704;2024-03-02T05:15:23;0.10;;;0.00;;
74679;SDS011;63211;48.548;2.704;2024-03-02T05:17:49;0.30;;;0.00;;
74679;SDS011;63211;48.548;2.704;2024-03-02T05:20:16;0.17;;;0.10;;
74679;SDS011;63211;48.548;2.704;2024-03-02T05:22:42;1.58;;;0.10;;
74679;SDS011;63211;48.548;2.704;2024-03-02T05:25:09;0.95;;;0.08;;
74679;SDS011;63211;48.548;2.704;2024-03-02T05:27:36;0.10;;;0.00;;
74679;SDS011;63211;48.548;2.704;2024-03-02T05:30:02;0.30;;;0.00;;
74679;SDS011;63211;48.548;2.704;2024-03-02T05:32:32;0.43;;;0.00;;
74679;SDS011;63211;48.548;2.704;2024-03-02T05:34:59;0.00;;;0.00;;
74679;SDS011;63211;48.548;2.704;2024-03-02T05:37:26;0.20;;;0.03;;
74679;SDS011;63211;48.548;2.704;2024-03-02T05:39:52;0.52;;;0.05;;
74679;SDS011;63211;48.548;2.704;2024-03-02T05:42:19;0.45;;;0.08;;
74679;SDS011;63211;48.548;2.704;2024-03-02T05:44:45;0.05;;;0.00;;
74679;SDS011;63211;48.548;2.704;2024-03-02T05:47:12;0.20;;;0.00;;
74679;SDS011;63211;48.548;2.704;2024-03-02T05:49:40;0.00;;;0.00;;
74679;SDS011;63211;48.548;2.704;2024-03-02T05:52:08;1.55;;;0.13;;
74679;SDS011;63211;48.548;2.704;2024-03-02T05:54:34;0.20;;;0.00;;
74679;SDS011;63211;48.548;2.704;2024-03-02T05:57:01;0.20;;;0.00;;
74679;SDS011;63211;48.548;2.704;2024-03-02T05:59:42;0.00;;;0.00;;
74679;SDS011;63211;48.548;2.704;2024-03-02T06:02:08;0.47;;;0.32;;
74679;SDS011;63211;48.548;2.704;2024-03-02T06:04:35;0.20;;;0.00;;
74679;SDS011;63211;48.548;2.704;2024-03-02T06:07:03;0.80;;;0.00;;
74679;SDS011;63211;48.548;2.704;2024-03-02T06:09:30;0.10;;;0.10;;
74679;SDS011;63211;48.548;2.704;2024-03-02T06:11:56;0.00;;;0.00;;
74679;SDS011;63211;48.548;2.704;2024-03-02T06:14:23;0.40;;;0.10;;
74679;SDS011;63211;48.548;2.704;2024-03-02T06:16:50;0.10;;;0.00;;
74679;SDS011;63211;48.548;2.704;2024-03-02T06:19:16;0.08;;;0.08;;
74679;SDS011;63211;48.548;2.704;2024-03-02T06:21:43;0.30;;;0.00;;
74679;SDS011;63211;48.548;2.704;2024-03-02T06:24:11;0.20;;;0.00;;
74679;SDS011;63211;48.548;2.704;2024-03-02T06:26:37;0.00;;;0.00;;
74679;SDS011;63211;48.548;2.704;2024-03-02T06:29:04;0.00;;;0.00;;
74679;SDS011;63211;48.548;2.704;2024-03-02T06:31:31;0.10;;;0.00;;
74679;SDS011;63211;48.548;2.704;2024-03-02T06:33:57;1.45;;;0.10;;
74679;SDS011;63211;48.548;2.704;2024-03-02T06:36:24;0.25;;;0.00;;
74679;SDS011;63211;48.548;2.704;2024-03-02T06:38:50;0.00;;;0.00;;
74679;SDS011;63211;48.548;2.704;2024-03-02T06:41:18;0.70;;;0.00;;
74679;SDS011;63211;48.548;2.704;2024-03-02T06:43:45;0.13;;;0.00;;
74679;SDS011;63211;48.548;2.704;2024-03-02T06:46:12;0.77;;;0.10;;
74679;SDS011;63211;48.548;2.704;2024-03-02T06:48:40;0.28;;;0.00;;
74679;SDS011;63211;48.548;2.704;2024-03-02T06:51:06;0.00;;;0.00;;
74679;SDS011;63211;48.548;2.704;2024-03-02T06:53:33;0.32;;;0.00;;
74679;SDS011;63211;48.548;2.704;2024-03-02T06:55:59;0.25;;;0.00;;
74679;SDS011;63211;48.548;2.704;2024-03-02T06:58:27;0.10;;;0.00;;
74679;SDS011;63211;48.548;2.704;2024-03-02T07:00:54;0.20;;;0.00;;
74679;SDS011;63211;48.548;2.704;2024-03-02T07:03:20;0.13;;;0.00;;
74679;SDS011;63211;48.548;2.704;2024-03-02T07:05:47;0.40;;;0.00;;
74679;SDS011;63211;48.548;2.704;2024-03-02T07:08:13;0.32;;;0.00;;
74679;SDS011;63211;48.548;2.704;2024-03-02T07:10:40;0.32;;;0.05;;
74679;SDS011;63211;48.548;2.704;2024-03-02T07:13:07;0.47;;;0.10;;
74679;SDS011;63211;48.548;2.704;2024-03-02T07:15:35;0.32;;;0.00;;
74679;SDS011;63211;48.548;2.704;2024-03-02T07:18:24;0.35;;;0.10;;
74679;SDS011;63211;48.548;2.704;2024-03-02T07:20:51;0.60;;;0.10;;
74679;SDS011;63211;48.548;2.704;2024-03-02T07:23:18;0.00;;;0.00;;
74679;SDS011;63211;48.548;2.704;2024-03-02T07:25:45;0.00;;;0.00;;
74679;SDS011;63211;48.548;2.704;2024-03-02T07:28:12;0.22;;;0.00;;
74679;SDS011;63211;48.548;2.704;2024-03-02T07:30:41;0.43;;;0.10;;
74679;SDS011;63211;48.548;2.704;2024-03-02T07:33:07;0.55;;;0.05;;
74679;SDS011;63211;48.548;2.704;2024-03-02T07:35:34;0.60;;;0.00;;
74679;SDS011;63211;48.548;2.704;2024-03-02T07:38:00;1.08;;;0.10;;
74679;SDS011;63211;48.548;2.704;2024-03-02T07:40:27;0.52;;;0.00;;
74679;SDS011;63211;48.548;2.704;2024-03-02T07:42:54;1.08;;;0.20;;
74679;SDS011;63211;48.548;2.704;2024-03-02T07:45:21;0.93;;;0.00;;
74679;SDS011;63211;48.548;2.704;2024-03-02T07:47:49;0.70;;;0.00;;
74679;SDS011;63211;48.548;2.704;2024-03-02T07:50:16;0.00;;;0.00;;
74679;SDS011;63211;48.548;2.704;2024-03-02T07:52:42;0.57;;;0.00;;
74679;SDS011;63211;48.548;2.704;2024-03-02T07:55:09;0.22;;;0.00;;
74679;SDS011;63211;48.548;2.704;2024-03-02T07:57:35;0.10;;;0.00;;
74679;SDS011;63211;48.548;2.704;2024-03-02T08:00:02;0.40;;;0.00;;
74679;SDS011;63211;48.548;2.704;2024-03-02T08:02:29;0.03;;;0.00;;
74679;SDS011;63211;48.548;2.704;2024-03-02T08:04:57;0.40;;;0.10;;
74679;SDS011;63211;48.548;2.704;2024-03-02T08:07:23;0.35;;;0.10;;
74679;SDS011;63211;48.548;2.704;2024-03-02T08:09:50;0.15;;;0.00;;
74679;SDS011;63211;48.548;2.704;2024-03-02T08:12:16;0.65;;;0.20;;
74679;SDS011;63211;48.548;2.704;2024-03-02T08:14:44;1.23;;;0.00;;
74679;SDS011;63211;48.548;2.704;2024-03-02T08:17:11;0.10;;;0.00;;
74679;SDS011;63211;48.548;2.704;2024-03-02T08:19:37;0.00;;;0.00;;
74679;SDS011;63211;48.548;2.704;2024-03-02T08:22:05;0.05;;;0.00;;
74679;SDS011;63211;48.548;2.704;2024-03-02T08:24:33;0.35;;;0.13;;
74679;SDS011;63211;48.548;2.704;2024-03-02T08:27:00;0.55;;;0.03;;
74679;SDS011;63211;48.548;2.704;2024-03-02T08:29:27;0.13;;;0.00;;
74679;SDS011;63211;48.548;2.704;2024-03-02T08:31:54;0.43;;;0.00;;
74679;SDS011;63211;48.548;2.704;2024-03-02T08:34:20;0.20;;;0.00;;
74679;SDS011;63211;48.548;2.704;2024-03-02T08:36:47;0.08;;;0.00;;
74679;SDS011;63211;48.548;2.704;2024-03-02T08:39:15;0.65;;;0.00;;
74679;SDS011;63211;48.548;2.704;2024-03-02T08:41:42;0.03;;;0.00;;
74679;SDS011;63211;48.548;2.704;2024-03-02T08:44:10;0.00;;;0.00;;
74679;SDS011;63211;48.548;2.704;2024-03-02T08:46:37;0.30;;;0.10;;
74679;SDS011;63211;48.548;2.704;2024-03-02T08:49:03;0.80;;;0.10;;
74679;SDS011;63211;48.548;2.704;2024-03-02T08:51:30;1.38;;;0.17;;
74679;SDS011;63211;48.548;2.704;2024-03-02T08:53:57;2.47;;;0.00;;
74679;SDS011;63211;48.548;2.704;2024-03-02T08:56:25;2.08;;;0.10;;
74679;SDS011;63211;48.548;2.704;2024-03-02T08:58:52;2.08;;;0.82;;
74679;SDS011;63211;48.548;2.704;2024-03-02T09:01:19;9.57;;;1.80;;
74679;SDS011;63211;48.548;2.704;2024-03-02T09:03:46;0.20;;;0.00;;
74679;SDS011;63211;48.548;2.704;2024-03-02T09:06:14;1.00;;;0.10;;
74679;SDS011;63211;48.548;2.704;2024-03-02T09:08:41;0.80;;;0.10;;
74679;SDS011;63211;48.548;2.704;2024-03-02T09:11:08;0.43;;;0.20;;
74679;SDS011;63211;48.548;2.704;2024-03-02T09:13:37;0.45;;;0.20;;
74679;SDS011;63211;48.548;2.704;2024-03-02T09:16:04;0.77;;;0.00;;
74679;SDS011;63211;48.548;2.704;2024-03-02T09:18:31;0.10;;;0.00;;
74679;SDS011;63211;48.548;2.704;2024-03-02T09:20:58;1.17;;;0.10;;
74679;SDS011;63211;48.548;2.704;2024-03-02T09:23:24;0.55;;;0.10;;
74679;SDS011;63211;48.548;2.704;2024-03-02T09:25:51;0.45;;;0.00;;
74679;SDS011;63211;48.548;2.704;2024-03-02T09:28:18;0.10;;;0.00;;
74679;SDS011;63211;48.548;2.704;2024-03-02T09:30:46;0.55;;;0.10;;
74679;SDS011;63211;48.548;2.704;2024-03-02T09:33:12;0.63;;;0.00;;
74679;SDS011;63211;48.548;2.704;2024-03-02T09:35:39;0.17;;;0.05;;
74679;SDS011;63211;48.548;2.704;2024-03-02T09:38:05;1.10;;;0.10;;
74679;SDS011;63211;48.548;2.704;2024-03-02T09:40:32;0.35;;;0.00;;
74679;SDS011;63211;48.548;2.704;2024-03-02T09:42:58;0.10;;;0.00;;
74679;SDS011;63211;48.548;2.704;2024-03-02T09:45:26;0.77;;;0.10;;
74679;SDS011;63211;48.548;2.704;2024-03-02T09:47:54;0.75;;;0.20;;
74679;SDS011;63211;48.548;2.704;2024-03-02T09:50:21;0.25;;;0.10;;
74679;SDS011;63211;48.548;2.704;2024-03-02T09:52:48;5.22;;;0.20;;
74679;SDS011;63211;48.548;2.704;2024-03-02T09:55:15;0.80;;;0.00;;
74679;SDS011;63211;48.548;2.704;2024-03-02T09:57:43;1.45;;;0.17;;
74679;SDS011;63211;48.548;2.704;2024-03-02T10:00:10;3.25;;;0.43;;
74679;SDS011;63211;48.548;2.704;2024-03-02T10:02:39;0.82;;;0.17;;
74679;SDS011;63211;48.548;2.704;2024-03-02T10:05:08;0.85;;;0.17;;
74679;SDS011;63211;48.548;2.704;2024-03-02T10:07:35;0.75;;;0.25;;
74679;SDS011;63211;48.548;2.704;2024-03-02T10:10:12;0.45;;;0.15;;
74679;SDS011;63211;48.548;2.704;2024-03-02T10:12:39;0.35;;;0.00;;
74679;SDS011;63211;48.548;2.704;2024-03-02T10:15:06;0.17;;;0.00;;
74679;SDS011;63211;48.548;2.704;2024-03-02T10:17:34;0.03;;;0.00;;
74679;SDS011;63211;48.548;2.704;2024-03-02T10:20:10;0.38;;;0.30;;
74679;SDS011;63211;48.548;2.704;2024-03-02T10:22:48;0.15;;;0.10;;
74679;SDS011;63211;48.548;2.704;2024-03-02T10:25:27;0.70;;;0.10;;
74679;SDS011;63211;48.548;2.704;2024-03-02T10:27:56;1.40;;;0.08;;
74679;SDS011;63211;48.548;2.704;2024-03-02T10:30:23;1.20;;;0.10;;
74679;SDS011;63211;48.548;2.704;2024-03-02T10:32:50;0.10;;;0.10;;
74679;SDS011;63211;48.548;2.704;2024-03-02T10:35:18;0.13;;;0.03;;
74679;SDS011;63211;48.548;2.704;2024-03-02T10:37:47;1.55;;;0.03;;
74679;SDS011;63211;48.548;2.704;2024-03-02T10:40:13;0.10;;;0.00;;
74679;SDS011;63211;48.548;2.704;2024-03-02T10:42:41;0.35;;;0.10;;
74679;SDS011;63211;48.548;2.704;2024-03-02T10:45:08;1.13;;;0.10;;
74679;SDS011;63211;48.548;2.704;2024-03-02T10:47:36;0.20;;;0.00;;
74679;SDS011;63211;48.548;2.704;2024-03-02T10:50:04;0.15;;;0.00;;
74679;SDS011;63211;48.548;2.704;2024-03-02T10:52:34;0.13;;;0.00;;
74679;SDS011;63211;48.548;2.704;2024-03-02T10:55:01;0.30;;;0.08;;
74679;SDS011;63211;48.548;2.704;2024-03-02T10:57:32;1.20;;;0.00;;
74679;SDS011;63211;48.548;2.704;2024-03-02T11:00:07;0.95;;;0.10;;
74679;SDS011;63211;48.548;2.704;2024-03-02T11:02:40;0.10;;;0.00;;
74679;SDS011;63211;48.548;2.704;2024-03-02T11:05:13;0.38;;;0.10;;
74679;SDS011;63211;48.548;2.704;2024-03-02T11:07:47;0.75;;;0.00;;
74679;SDS011;63211;48.548;2.704;2024-03-02T11:10:14;0.00;;;0.00;;
74679;SDS011;63211;48.548;2.704;2024-03-02T11:12:43;1.50;;;0.20;;
74679;SDS011;63211;48.548;2.704;2024-03-02T11:15:18;0.95;;;0.10;;
74679;SDS011;63211;48.548;2.704;2024-03-02T11:17:45;0.35;;;0.08;;
74679;SDS011;63211;48.548;2.704;2024-03-02T11:20:13;0.32;;;0.10;;
74679;SDS011;63211;48.548;2.704;2024-03-02T11:22:41;1.20;;;0.13;;
74679;SDS011;63211;48.548;2.704;2024-03-02T11:25:23;0.40;;;0.10;;
74679;SDS011;63211;48.548;2.704;2024-03-02T11:28:00;0.35;;;0.10;;
74679;SDS011;63211;48.548;2.704;2024-03-02T11:30:49;0.22;;;0.00;;
74679;SDS011;63211;48.548;2.704;2024-03-02T11:33:25;1.88;;;0.17;;
74679;SDS011;63211;48.548;2.704;2024-03-02T11:35:54;1.60;;;0.13;;
74679;SDS011;63211;48.548;2.704;2024-03-02T11:38:22;0.40;;;0.10;;
74679;SDS011;63211;48.548;2.704;2024-03-02T11:40:51;0.57;;;0.17;;
74679;SDS011;63211;48.548;2.704;2024-03-02T11:43:18;0.43;;;0.00;;
74679;SDS011;63211;48.548;2.704;2024-03-02T11:45:45;1.30;;;0.10;;
74679;SDS011;63211;48.548;2.704;2024-03-02T11:48:13;0.20;;;0.10;;
74679;SDS011;63211;48.548;2.704;2024-03-02T11:50:41;0.30;;;0.05;;
74679;SDS011;63211;48.548;2.704;2024-03-02T11:53:09;0.93;;;0.10;;
74679;SDS011;63211;48.548;2.704;2024-03-02T11:55:37;0.95;;;0.10;;
74679;SDS011;63211;48.548;2.704;2024-03-02T11:58:07;0.22;;;0.10;;
74679;SDS011;63211;48.548;2.704;2024-03-02T12:00:34;0.57;;;0.20;;
74679;SDS011;63211;48.548;2.704;2024-03-02T12:03:01;1.00;;;0.50;;
74679;SDS011;63211;48.548;2.704;2024-03-02T12:05:29;1.15;;;0.70;;
74679;SDS011;63211;48.548;2.704;2024-03-02T12:07:57;2.75;;;2.20;;
74679;SDS011;63211;48.548;2.704;2024-03-02T12:10:24;2.42;;;1.70;;
74679;SDS011;63211;48.548;2.704;2024-03-02T12:12:57;2.55;;;1.67;;
74679;SDS011;63211;48.548;2.704;2024-03-02T12:15:26;2.95;;;2.03;;
74679;SDS011;63211;48.548;2.704;2024-03-02T12:17:54;2.90;;;1.80;;
74679;SDS011;63211;48.548;2.704;2024-03-02T12:20:21;3.35;;;2.42;;
74679;SDS011;63211;48.548;2.704;2024-03-02T12:22:49;2.90;;;1.75;;
74679;SDS011;63211;48.548;2.704;2024-03-02T12:25:17;3.00;;;1.80;;
74679;SDS011;63211;48.548;2.704;2024-03-02T12:27:44;4.43;;;3.17;;
74679;SDS011;63211;48.548;2.704;2024-03-02T12:30:12;3.92;;;2.78;;
74679;SDS011;63211;48.548;2.704;2024-03-02T12:32:41;3.28;;;2.22;;
74679;SDS011;63211;48.548;2.704;2024-03-02T12:35:08;3.97;;;3.08;;
74679;SDS011;63211;48.548;2.704;2024-03-02T12:37:43;3.47;;;2.65;;
74679;SDS011;63211;48.548;2.704;2024-03-02T12:40:10;4.05;;;2.53;;
74679;SDS011;63211;48.548;2.704;2024-03-02T12:42:37;3.13;;;2.13;;
74679;SDS011;63211;48.548;2.704;2024-03-02T12:45:04;3.20;;;1.90;;
74679;SDS011;63211;48.548;2.704;2024-03-02T12:47:31;3.30;;;2.20;;
74679;SDS011;63211;48.548;2.704;2024-03-02T12:50:00;2.70;;;1.73;;
74679;SDS011;63211;48.548;2.704;2024-03-02T12:52:27;3.30;;;1.88;;
74679;SDS011;63211;48.548;2.704;2024-03-02T12:54:54;2.38;;;1.65;;
74679;SDS011;63211;48.548;2.704;2024-03-02T12:57:24;2.28;;;1.55;;
74679;SDS011;63211;48.548;2.704;2024-03-02T12:59:52;2.08;;;1.40;;
74679;SDS011;63211;48.548;2.704;2024-03-02T13:02:19;2.13;;;1.70;;
74679;SDS011;63211;48.548;2.704;2024-03-02T13:04:51;2.38;;;1.80;;
74679;SDS011;63211;48.548;2.704;2024-03-02T13:07:20;3.20;;;1.77;;
74679;SDS011;63211;48.548;2.704;2024-03-02T13:09:47;3.20;;;1.33;;
74679;SDS011;63211;48.548;2.704;2024-03-02T13:12:14;2.15;;;1.50;;
74679;SDS011;63211;48.548;2.704;2024-03-02T13:14:41;2.03;;;1.25;;
74679;SDS011;63211;48.548;2.704;2024-03-02T13:17:08;3.03;;;1.40;;
74679;SDS011;63211;48.548;2.704;2024-03-02T13:19:34;1.85;;;1.58;;
74679;SDS011;63211;48.548;2.704;2024-03-02T13:22:01;1.80;;;1.40;;
74679;SDS011;63211;48.548;2.704;2024-03-02T13:24:30;2.15;;;1.27;;
74679;SDS011;63211;48.548;2.704;2024-03-02T13:26:56;1.67;;;1.33;;
74679;SDS011;63211;48.548;2.704;2024-03-02T13:29:23;2.42;;;1.50;;
74679;SDS011;63211;48.548;2.704;2024-03-02T13:31:50;1.70;;;1.20;;
74679;SDS011;63211;48.548;2.704;2024-03-02T13:34:17;1.42;;;1.02;;
74679;SDS011;63211;48.548;2.704;2024-03-02T13:36:44;2.10;;;1.30;;
74679;SDS011;63211;48.548;2.704;2024-03-02T13:39:10;2.10;;;1.35;;
74679;SDS011;63211;48.548;2.704;2024-03-02T13:41:41;1.70;;;1.10;;
74679;SDS011;63211;48.548;2.704;2024-03-02T13:44:16;3.47;;;1.20;;
74679;SDS011;63211;48.548;2.704;2024-03-02T13:46:43;2.50;;;1.50;;
74679;SDS011;63211;48.548;2.704;2024-03-02T13:49:10;5.82;;;1.00;;
74679;SDS011;63211;48.548;2.704;2024-03-02T13:51:37;3.17;;;1.05;;
74679;SDS011;63211;48.548;2.704;2024-03-02T13:54:04;1.45;;;1.10;;
74679;SDS011;63211;48.548;2.704;2024-03-02T13:56:31;3.47;;;1.33;;
74679;SDS011;63211;48.548;2.704;2024-03-02T13:58:59;1.58;;;1.10;;
74679;SDS011;63211;48.548;2.704;2024-03-02T14:01:26;2.17;;;1.20;;
74679;SDS011;63211;48.548;2.704;2024-03-02T14:03:52;3.00;;;1.38;;
74679;SDS011;63211;48.548;2.704;2024-03-02T14:06:20;2.47;;;1.35;;
74679;SDS011;63211;48.548;2.704;2024-03-02T14:08:47;2.28;;;1.23;;
74679;SDS011;63211;48.548;2.704;2024-03-02T14:11:14;2.20;;;1.38;;
74679;SDS011;63211;48.548;2.704;2024-03-02T14:13:41;2.55;;;1.60;;
74679;SDS011;63211;48.548;2.704;2024-03-02T14:16:10;2.92;;;1.48;;
74679;SDS011;63211;48.548;2.704;2024-03-02T14:18:37;2.17;;;1.20;;
74679;SDS011;63211;48.548;2.704;2024-03-02T14:21:04;3.30;;;1.17;;
74679;SDS011;63211;48.548;2.704;2024-03-02T14:23:31;1.30;;;0.80;;
74679;SDS011;63211;48.548;2.704;2024-03-02T14:25:57;1.80;;;1.17;;
74679;SDS011;63211;48.548;2.704;2024-03-02T14:28:24;1.95;;;1.00;;
74679;SDS011;63211;48.548;2.704;2024-03-02T14:30:51;1.50;;;0.88;;
74679;SDS011;63211;48.548;2.704;2024-03-02T14:33:20;1.35;;;0.73;;
74679;SDS011;63211;48.548;2.704;2024-03-02T14:35:46;1.70;;;1.27;;
74679;SDS011;63211;48.548;2.704;2024-03-02T14:38:13;1.98;;;1.27;;
74679;SDS011;63211;48.548;2.704;2024-03-02T14:40:40;2.38;;;1.20;;
74679;SDS011;63211;48.548;2.704;2024-03-02T14:43:07;2.05;;;1.30;;
74679;SDS011;63211;48.548;2.704;2024-03-02T14:45:33;1.77;;;0.98;;
74679;SDS011;63211;48.548;2.704;2024-03-02T14:48:00;2.42;;;1.10;;
74679;SDS011;63211;48.548;2.704;2024-03-02T14:50:28;1.67;;;0.93;;